sensor_id;sensor_type;location;lat;lon;timestamp;P1;durP1;ratioP1;P2;durP2;ratioP2
18340;SDS011;9296;48.084;16.352;2022-07-22T00:02:10;8.13;;;6.85;;
18340;SDS011;9296;48.084;16.352;2022-07-22T00:04:37;7.05;;;6.35;;
18340;SDS011;9296;48.084;16.352;2022-07-22T00:07:05;8.10;;;6.90;;
18340;SDS011;9296;48.084;16.352;2022-07-22T00:09:32;7.45;;;6.57;;
18340;SDS011;9296;48.084;16.352;2022-07-22T00:12:00;7.47;;;6.32;;
18340;SDS011;9296;48.084;16.352;2022-07-22T00:14:28;7.05;;;6.38;;
18340;SDS011;9296;48.084;16.352;2022-07-22T00:16:55;7.00;;;6.30;;
18340;SDS011;9296;48.084;16.352;2022-07-22T00:19:22;8.90;;;6.93;;
18340;SDS011;9296;48.084;16.352;2022-07-22T00:21:50;7.50;;;6.80;;
18340;SDS011;9296;48.084;16.352;2022-07-22T00:24:17;7.50;;;6.80;;
18340;SDS011;9296;48.084;16.352;2022-07-22T00:26:44;7.55;;;6.85;;
18340;SDS011;9296;48.084;16.352;2022-07-22T00:29:13;7.20;;;6.50;;
18340;SDS011;9296;48.084;16.352;2022-07-22T00:31:40;7.97;;;6.60;;
18340;SDS011;9296;48.084;16.352;2022-07-22T00:37:30;7.78;;;6.82;;
18340;SDS011;9296;48.084;16.352;2022-07-22T00:39:57;9.18;;;8.27;;
18340;SDS011;9296;48.084;16.352;2022-07-22T00:42:24;8.65;;;7.55;;
18340;SDS011;9296;48.084;16.352;2022-07-22T00:44:53;8.50;;;7.00;;
18340;SDS011;9296;48.084;16.352;2022-07-22T00:47:20;9.20;;;6.90;;
18340;SDS011;9296;48.084;16.352;2022-07-22T00:50:06;7.97;;;7.13;;
18340;SDS011;9296;48.084;16.352;2022-07-22T00:52:34;8.30;;;7.38;;
18340;SDS011;9296;48.084;16.352;2022-07-22T00:55:01;8.45;;;7.63;;
18340;SDS011;9296;48.084;16.352;2022-07-22T00:57:28;11.07;;;8.27;;
18340;SDS011;9296;48.084;16.352;2022-07-22T00:59:57;8.70;;;7.53;;
18340;SDS011;9296;48.084;16.352;2022-07-22T01:02:24;9.48;;;8.48;;
18340;SDS011;9296;48.084;16.352;2022-07-22T01:04:51;10.07;;;7.82;;
18340;SDS011;9296;48.084;16.352;2022-07-22T01:07:19;8.10;;;7.30;;
18340;SDS011;9296;48.084;16.352;2022-07-22T01:09:46;8.65;;;7.82;;
18340;SDS011;9296;48.084;16.352;2022-07-22T01:12:13;9.18;;;7.97;;
18340;SDS011;9296;48.084;16.352;2022-07-22T01:14:41;9.55;;;7.82;;
18340;SDS011;9296;48.084;16.352;2022-07-22T01:17:09;9.63;;;7.93;;
18340;SDS011;9296;48.084;16.352;2022-07-22T01:22:42;9.20;;;7.68;;
18340;SDS011;9296;48.084;16.352;2022-07-22T01:25:10;9.07;;;7.30;;
18340;SDS011;9296;48.084;16.352;2022-07-22T01:27:37;8.35;;;7.53;;
18340;SDS011;9296;48.084;16.352;2022-07-22T01:30:05;8.88;;;7.72;;
18340;SDS011;9296;48.084;16.352;2022-07-22T01:32:32;8.20;;;7.28;;
18340;SDS011;9296;48.084;16.352;2022-07-22T01:35:00;9.30;;;7.60;;
18340;SDS011;9296;48.084;16.352;2022-07-22T01:37:27;9.63;;;7.10;;
18340;SDS011;9296;48.084;16.352;2022-07-22T01:39:56;8.57;;;7.10;;
18340;SDS011;9296;48.084;16.352;2022-07-22T01:42:23;8.48;;;7.63;;
18340;SDS011;9296;48.084;16.352;2022-07-22T01:44:50;8.68;;;7.78;;
18340;SDS011;9296;48.084;16.352;2022-07-22T01:47:18;8.45;;;7.63;;
18340;SDS011;9296;48.084;16.352;2022-07-22T01:49:45;9.45;;;8.18;;
18340;SDS011;9296;48.084;16.352;2022-07-22T01:52:12;8.38;;;7.50;;
18340;SDS011;9296;48.084;16.352;2022-07-22T01:54:39;11.18;;;8.32;;
18340;SDS011;9296;48.084;16.352;2022-07-22T01:57:08;9.07;;;8.05;;
18340;SDS011;9296;48.084;16.352;2022-07-22T01:59:35;8.93;;;8.02;;
18340;SDS011;9296;48.084;16.352;2022-07-22T02:02:02;10.63;;;8.82;;
18340;SDS011;9296;48.084;16.352;2022-07-22T02:04:35;9.88;;;8.63;;
18340;SDS011;9296;48.084;16.352;2022-07-22T02:07:02;10.70;;;8.82;;
18340;SDS011;9296;48.084;16.352;2022-07-22T02:09:29;9.43;;;8.52;;
18340;SDS011;9296;48.084;16.352;2022-07-22T02:11:56;9.82;;;8.82;;
18340;SDS011;9296;48.084;16.352;2022-07-22T02:14:25;9.63;;;8.60;;
18340;SDS011;9296;48.084;16.352;2022-07-22T02:16:52;9.38;;;8.50;;
18340;SDS011;9296;48.084;16.352;2022-07-22T02:19:19;11.18;;;8.57;;
18340;SDS011;9296;48.084;16.352;2022-07-22T02:25:08;9.90;;;8.70;;
18340;SDS011;9296;48.084;16.352;2022-07-22T02:27:35;9.68;;;8.38;;
18340;SDS011;9296;48.084;16.352;2022-07-22T02:30:05;9.40;;;8.40;;
18340;SDS011;9296;48.084;16.352;2022-07-22T02:32:32;9.73;;;8.82;;
18340;SDS011;9296;48.084;16.352;2022-07-22T02:34:59;9.75;;;8.75;;
18340;SDS011;9296;48.084;16.352;2022-07-22T02:37:26;11.68;;;9.10;;
18340;SDS011;9296;48.084;16.352;2022-07-22T02:39:54;9.70;;;8.80;;
18340;SDS011;9296;48.084;16.352;2022-07-22T02:42:21;9.70;;;8.70;;
18340;SDS011;9296;48.084;16.352;2022-07-22T02:44:48;9.80;;;8.80;;
18340;SDS011;9296;48.084;16.352;2022-07-22T02:47:17;9.70;;;8.48;;
18340;SDS011;9296;48.084;16.352;2022-07-22T02:52:31;9.50;;;8.60;;
18340;SDS011;9296;48.084;16.352;2022-07-22T02:54:58;10.77;;;8.88;;
18340;SDS011;9296;48.084;16.352;2022-07-22T02:57:25;11.20;;;8.80;;
18340;SDS011;9296;48.084;16.352;2022-07-22T02:59:52;9.95;;;8.95;;
18340;SDS011;9296;48.084;16.352;2022-07-22T03:02:21;9.85;;;8.90;;
18340;SDS011;9296;48.084;16.352;2022-07-22T03:04:48;11.50;;;9.15;;
18340;SDS011;9296;48.084;16.352;2022-07-22T03:07:15;10.80;;;9.20;;
18340;SDS011;9296;48.084;16.352;2022-07-22T03:09:43;10.05;;;8.98;;
18340;SDS011;9296;48.084;16.352;2022-07-22T03:12:10;10.23;;;9.27;;
18340;SDS011;9296;48.084;16.352;2022-07-22T03:14:37;10.23;;;9.00;;
18340;SDS011;9296;48.084;16.352;2022-07-22T03:17:05;10.35;;;9.27;;
18340;SDS011;9296;48.084;16.352;2022-07-22T03:19:33;9.60;;;8.70;;
18340;SDS011;9296;48.084;16.352;2022-07-22T03:22:01;10.98;;;9.10;;
18340;SDS011;9296;48.084;16.352;2022-07-22T03:24:28;12.13;;;9.02;;
18340;SDS011;9296;48.084;16.352;2022-07-22T03:26:55;10.75;;;9.60;;
18340;SDS011;9296;48.084;16.352;2022-07-22T03:29:22;10.32;;;9.25;;
18340;SDS011;9296;48.084;16.352;2022-07-22T03:31:49;9.80;;;8.90;;
18340;SDS011;9296;48.084;16.352;2022-07-22T03:34:16;10.73;;;9.27;;
18340;SDS011;9296;48.084;16.352;2022-07-22T03:39:48;13.07;;;9.35;;
18340;SDS011;9296;48.084;16.352;2022-07-22T03:42:15;10.63;;;9.50;;
18340;SDS011;9296;48.084;16.352;2022-07-22T03:44:43;11.05;;;8.98;;
18340;SDS011;9296;48.084;16.352;2022-07-22T03:47:11;11.75;;;9.38;;
18340;SDS011;9296;48.084;16.352;2022-07-22T03:55:47;11.35;;;9.35;;
18340;SDS011;9296;48.084;16.352;2022-07-22T03:58:15;10.45;;;9.35;;
18340;SDS011;9296;48.084;16.352;2022-07-22T04:00:43;12.10;;;9.77;;
18340;SDS011;9296;48.084;16.352;2022-07-22T04:03:10;10.57;;;9.57;;
18340;SDS011;9296;48.084;16.352;2022-07-22T04:08:42;10.43;;;9.32;;
18340;SDS011;9296;48.084;16.352;2022-07-22T04:11:10;11.13;;;9.48;;
18340;SDS011;9296;48.084;16.352;2022-07-22T04:13:37;11.25;;;9.40;;
18340;SDS011;9296;48.084;16.352;2022-07-22T04:16:05;10.55;;;9.52;;
18340;SDS011;9296;48.084;16.352;2022-07-22T04:18:32;10.57;;;9.55;;
18340;SDS011;9296;48.084;16.352;2022-07-22T04:20:59;11.00;;;9.65;;
18340;SDS011;9296;48.084;16.352;2022-07-22T04:23:27;11.48;;;10.30;;
18340;SDS011;9296;48.084;16.352;2022-07-22T04:25:54;11.40;;;10.20;;
18340;SDS011;9296;48.084;16.352;2022-07-22T04:28:22;11.70;;;9.88;;
18340;SDS011;9296;48.084;16.352;2022-07-22T04:30:50;10.65;;;9.65;;
18340;SDS011;9296;48.084;16.352;2022-07-22T04:33:17;11.35;;;10.20;;
18340;SDS011;9296;48.084;16.352;2022-07-22T04:35:59;10.27;;;9.38;;
18340;SDS011;9296;48.084;16.352;2022-07-22T04:38:27;13.90;;;10.38;;
18340;SDS011;9296;48.084;16.352;2022-07-22T04:40:54;10.68;;;9.57;;
18340;SDS011;9296;48.084;16.352;2022-07-22T04:43:22;11.23;;;10.13;;
18340;SDS011;9296;48.084;16.352;2022-07-22T04:45:50;10.55;;;9.63;;
18340;SDS011;9296;48.084;16.352;2022-07-22T04:48:17;11.80;;;10.32;;
18340;SDS011;9296;48.084;16.352;2022-07-22T04:53:31;11.63;;;9.63;;
18340;SDS011;9296;48.084;16.352;2022-07-22T04:55:58;10.98;;;9.88;;
18340;SDS011;9296;48.084;16.352;2022-07-22T04:58:27;11.88;;;10.07;;
18340;SDS011;9296;48.084;16.352;2022-07-22T05:00:54;11.77;;;9.80;;
18340;SDS011;9296;48.084;16.352;2022-07-22T05:03:21;11.20;;;9.88;;
18340;SDS011;9296;48.084;16.352;2022-07-22T05:08:53;11.15;;;9.93;;
18340;SDS011;9296;48.084;16.352;2022-07-22T05:11:20;10.85;;;9.45;;
18340;SDS011;9296;48.084;16.352;2022-07-22T05:13:48;11.23;;;10.02;;
18340;SDS011;9296;48.084;16.352;2022-07-22T05:16:16;12.40;;;10.20;;
18340;SDS011;9296;48.084;16.352;2022-07-22T05:18:43;12.10;;;9.98;;
18340;SDS011;9296;48.084;16.352;2022-07-22T05:24:13;10.77;;;9.45;;
18340;SDS011;9296;48.084;16.352;2022-07-22T05:26:41;14.55;;;10.23;;
18340;SDS011;9296;48.084;16.352;2022-07-22T05:29:09;12.43;;;10.02;;
18340;SDS011;9296;48.084;16.352;2022-07-22T05:31:36;10.93;;;9.82;;
18340;SDS011;9296;48.084;16.352;2022-07-22T05:34:04;10.43;;;9.23;;
18340;SDS011;9296;48.084;16.352;2022-07-22T05:36:32;11.00;;;10.00;;
18340;SDS011;9296;48.084;16.352;2022-07-22T05:39:00;10.48;;;9.48;;
18340;SDS011;9296;48.084;16.352;2022-07-22T05:41:27;11.55;;;9.52;;
18340;SDS011;9296;48.084;16.352;2022-07-22T05:43:54;10.48;;;9.43;;
18340;SDS011;9296;48.084;16.352;2022-07-22T05:46:23;10.60;;;9.40;;
18340;SDS011;9296;48.084;16.352;2022-07-22T05:48:50;11.98;;;10.20;;
18340;SDS011;9296;48.084;16.352;2022-07-22T05:51:20;10.75;;;9.70;;
18340;SDS011;9296;48.084;16.352;2022-07-22T05:53:47;10.70;;;9.65;;
18340;SDS011;9296;48.084;16.352;2022-07-22T05:56:15;10.90;;;9.38;;
18340;SDS011;9296;48.084;16.352;2022-07-22T05:58:42;12.30;;;9.27;;
18340;SDS011;9296;48.084;16.352;2022-07-22T06:01:09;10.15;;;8.98;;
18340;SDS011;9296;48.084;16.352;2022-07-22T06:03:39;10.35;;;9.15;;
18340;SDS011;9296;48.084;16.352;2022-07-22T06:06:06;10.10;;;9.05;;
18340;SDS011;9296;48.084;16.352;2022-07-22T06:08:34;11.32;;;9.23;;
18340;SDS011;9296;48.084;16.352;2022-07-22T06:11:01;10.02;;;8.98;;
18340;SDS011;9296;48.084;16.352;2022-07-22T06:13:28;10.88;;;9.30;;
18340;SDS011;9296;48.084;16.352;2022-07-22T06:15:56;11.00;;;9.10;;
18340;SDS011;9296;48.084;16.352;2022-07-22T06:18:23;9.90;;;8.90;;
18340;SDS011;9296;48.084;16.352;2022-07-22T06:27:08;9.95;;;8.95;;
18340;SDS011;9296;48.084;16.352;2022-07-22T06:29:35;9.82;;;8.90;;
18340;SDS011;9296;48.084;16.352;2022-07-22T06:32:03;11.43;;;9.25;;
18340;SDS011;9296;48.084;16.352;2022-07-22T06:34:30;10.02;;;8.55;;
18340;SDS011;9296;48.084;16.352;2022-07-22T06:40:01;9.52;;;8.63;;
18340;SDS011;9296;48.084;16.352;2022-07-22T06:42:29;9.30;;;8.50;;
18340;SDS011;9296;48.084;16.352;2022-07-22T06:44:56;9.98;;;8.65;;
18340;SDS011;9296;48.084;16.352;2022-07-22T06:47:24;9.27;;;8.32;;
18340;SDS011;9296;48.084;16.352;2022-07-22T06:49:51;9.63;;;8.63;;
18340;SDS011;9296;48.084;16.352;2022-07-22T06:55:22;9.60;;;8.60;;
18340;SDS011;9296;48.084;16.352;2022-07-22T06:57:51;10.27;;;9.27;;
18340;SDS011;9296;48.084;16.352;2022-07-22T07:00:18;9.70;;;8.68;;
18340;SDS011;9296;48.084;16.352;2022-07-22T07:02:46;10.02;;;8.85;;
18340;SDS011;9296;48.084;16.352;2022-07-22T07:05:13;9.60;;;8.60;;
18340;SDS011;9296;48.084;16.352;2022-07-22T07:07:40;9.52;;;8.18;;
18340;SDS011;9296;48.084;16.352;2022-07-22T07:10:08;9.18;;;8.27;;
18340;SDS011;9296;48.084;16.352;2022-07-22T07:12:37;9.82;;;8.88;;
18340;SDS011;9296;48.084;16.352;2022-07-22T07:15:07;9.90;;;8.90;;
18340;SDS011;9296;48.084;16.352;2022-07-22T07:17:34;9.40;;;8.50;;
18340;SDS011;9296;48.084;16.352;2022-07-22T07:20:01;9.65;;;8.75;;
18340;SDS011;9296;48.084;16.352;2022-07-22T07:25:32;9.45;;;8.48;;
18340;SDS011;9296;48.084;16.352;2022-07-22T07:27:59;9.70;;;8.73;;
18340;SDS011;9296;48.084;16.352;2022-07-22T07:30:28;9.80;;;8.75;;
18340;SDS011;9296;48.084;16.352;2022-07-22T07:32:55;9.52;;;8.52;;
18340;SDS011;9296;48.084;16.352;2022-07-22T07:35:30;9.20;;;8.40;;
18340;SDS011;9296;48.084;16.352;2022-07-22T07:37:57;9.63;;;8.82;;
18340;SDS011;9296;48.084;16.352;2022-07-22T07:40:25;9.57;;;8.60;;
18340;SDS011;9296;48.084;16.352;2022-07-22T07:42:52;9.00;;;8.10;;
18340;SDS011;9296;48.084;16.352;2022-07-22T07:45:19;9.80;;;8.80;;
18340;SDS011;9296;48.084;16.352;2022-07-22T07:47:48;10.38;;;9.27;;
18340;SDS011;9296;48.084;16.352;2022-07-22T07:50:15;9.55;;;8.73;;
18340;SDS011;9296;48.084;16.352;2022-07-22T07:52:43;9.63;;;8.70;;
18340;SDS011;9296;48.084;16.352;2022-07-22T07:55:12;10.18;;;9.23;;
18340;SDS011;9296;48.084;16.352;2022-07-22T07:57:40;10.90;;;9.20;;
18340;SDS011;9296;48.084;16.352;2022-07-22T08:00:11;10.13;;;9.00;;
18340;SDS011;9296;48.084;16.352;2022-07-22T08:02:38;9.60;;;8.70;;
18340;SDS011;9296;48.084;16.352;2022-07-22T08:05:08;10.20;;;8.73;;
18340;SDS011;9296;48.084;16.352;2022-07-22T08:07:36;9.77;;;8.88;;
18340;SDS011;9296;48.084;16.352;2022-07-22T08:10:04;9.45;;;8.60;;
18340;SDS011;9296;48.084;16.352;2022-07-22T08:12:31;8.90;;;8.05;;
18340;SDS011;9296;48.084;16.352;2022-07-22T08:14:58;9.20;;;8.38;;
18340;SDS011;9296;48.084;16.352;2022-07-22T08:17:25;9.00;;;8.20;;
18340;SDS011;9296;48.084;16.352;2022-07-22T08:19:52;9.63;;;8.45;;
18340;SDS011;9296;48.084;16.352;2022-07-22T08:22:20;8.68;;;7.88;;
18340;SDS011;9296;48.084;16.352;2022-07-22T08:24:47;8.90;;;8.10;;
18340;SDS011;9296;48.084;16.352;2022-07-22T08:27:14;8.80;;;7.95;;
18340;SDS011;9296;48.084;16.352;2022-07-22T08:29:41;8.32;;;7.53;;
18340;SDS011;9296;48.084;16.352;2022-07-22T08:32:08;8.75;;;7.97;;
18340;SDS011;9296;48.084;16.352;2022-07-22T08:34:35;8.90;;;8.07;;
18340;SDS011;9296;48.084;16.352;2022-07-22T08:40:08;9.18;;;8.27;;
18340;SDS011;9296;48.084;16.352;2022-07-22T08:42:36;8.68;;;7.85;;
18340;SDS011;9296;48.084;16.352;2022-07-22T08:45:04;8.48;;;7.60;;
18340;SDS011;9296;48.084;16.352;2022-07-22T08:47:32;9.30;;;7.57;;
18340;SDS011;9296;48.084;16.352;2022-07-22T08:49:59;9.20;;;8.30;;
18340;SDS011;9296;48.084;16.352;2022-07-22T08:52:45;8.75;;;7.97;;
18340;SDS011;9296;48.084;16.352;2022-07-22T08:55:13;9.73;;;8.88;;
18340;SDS011;9296;48.084;16.352;2022-07-22T08:57:44;8.63;;;7.85;;
18340;SDS011;9296;48.084;16.352;2022-07-22T09:00:12;8.52;;;7.72;;
18340;SDS011;9296;48.084;16.352;2022-07-22T09:02:41;8.73;;;7.90;;
18340;SDS011;9296;48.084;16.352;2022-07-22T09:05:09;8.32;;;7.38;;
18340;SDS011;9296;48.084;16.352;2022-07-22T09:11:15;8.70;;;7.88;;
18340;SDS011;9296;48.084;16.352;2022-07-22T09:13:42;9.95;;;8.40;;
18340;SDS011;9296;48.084;16.352;2022-07-22T09:16:09;8.65;;;7.90;;
18340;SDS011;9296;48.084;16.352;2022-07-22T09:18:47;9.40;;;8.50;;
18340;SDS011;9296;48.084;16.352;2022-07-22T09:21:15;9.20;;;8.30;;
18340;SDS011;9296;48.084;16.352;2022-07-22T09:23:42;10.07;;;9.10;;
18340;SDS011;9296;48.084;16.352;2022-07-22T09:26:28;9.20;;;8.27;;
18340;SDS011;9296;48.084;16.352;2022-07-22T09:28:59;9.00;;;8.10;;
18340;SDS011;9296;48.084;16.352;2022-07-22T09:31:27;8.98;;;8.18;;
18340;SDS011;9296;48.084;16.352;2022-07-22T09:33:56;8.60;;;7.70;;
18340;SDS011;9296;48.084;16.352;2022-07-22T09:36:23;8.80;;;7.90;;
18340;SDS011;9296;48.084;16.352;2022-07-22T09:38:51;8.27;;;7.57;;
18340;SDS011;9296;48.084;16.352;2022-07-22T09:41:18;8.75;;;7.95;;
18340;SDS011;9296;48.084;16.352;2022-07-22T09:43:47;8.73;;;7.93;;
18340;SDS011;9296;48.084;16.352;2022-07-22T09:46:15;8.80;;;8.00;;
18340;SDS011;9296;48.084;16.352;2022-07-22T09:48:43;8.55;;;7.65;;
18340;SDS011;9296;48.084;16.352;2022-07-22T09:51:10;8.00;;;7.30;;
18340;SDS011;9296;48.084;16.352;2022-07-22T09:53:37;8.50;;;7.70;;
18340;SDS011;9296;48.084;16.352;2022-07-22T09:56:05;9.30;;;8.30;;
18340;SDS011;9296;48.084;16.352;2022-07-22T09:58:33;8.63;;;7.80;;
18340;SDS011;9296;48.084;16.352;2022-07-22T10:01:02;8.80;;;7.90;;
18340;SDS011;9296;48.084;16.352;2022-07-22T10:03:31;8.17;;;7.47;;
18340;SDS011;9296;48.084;16.352;2022-07-22T10:06:03;8.80;;;7.93;;
18340;SDS011;9296;48.084;16.352;2022-07-22T10:08:31;8.63;;;7.80;;
18340;SDS011;9296;48.084;16.352;2022-07-22T10:10:59;8.23;;;7.43;;
18340;SDS011;9296;48.084;16.352;2022-07-22T10:13:27;8.30;;;7.50;;
18340;SDS011;9296;48.084;16.352;2022-07-22T10:15:56;8.48;;;7.68;;
18340;SDS011;9296;48.084;16.352;2022-07-22T10:18:25;8.07;;;7.38;;
18340;SDS011;9296;48.084;16.352;2022-07-22T10:21:01;8.93;;;7.63;;
18340;SDS011;9296;48.084;16.352;2022-07-22T10:23:29;9.40;;;7.93;;
18340;SDS011;9296;48.084;16.352;2022-07-22T10:25:56;9.83;;;7.87;;
18340;SDS011;9296;48.084;16.352;2022-07-22T10:28:25;8.60;;;7.68;;
18340;SDS011;9296;48.084;16.352;2022-07-22T10:30:53;7.85;;;7.15;;
18340;SDS011;9296;48.084;16.352;2022-07-22T10:33:34;7.90;;;7.20;;
18340;SDS011;9296;48.084;16.352;2022-07-22T10:42:32;7.95;;;7.30;;
18340;SDS011;9296;48.084;16.352;2022-07-22T10:45:34;8.90;;;7.40;;
18340;SDS011;9296;48.084;16.352;2022-07-22T10:48:04;7.68;;;6.97;;
18340;SDS011;9296;48.084;16.352;2022-07-22T10:57:30;8.27;;;7.38;;
18340;SDS011;9296;48.084;16.352;2022-07-22T10:59:57;10.43;;;7.32;;
18340;SDS011;9296;48.084;16.352;2022-07-22T11:02:24;7.80;;;7.10;;
18340;SDS011;9296;48.084;16.352;2022-07-22T11:04:53;10.13;;;7.82;;
18340;SDS011;9296;48.084;16.352;2022-07-22T11:10:26;8.15;;;7.32;;
18340;SDS011;9296;48.084;16.352;2022-07-22T11:12:54;8.82;;;6.93;;
18340;SDS011;9296;48.084;16.352;2022-07-22T11:15:24;8.20;;;7.28;;
18340;SDS011;9296;48.084;16.352;2022-07-22T11:17:55;8.70;;;7.25;;
18340;SDS011;9296;48.084;16.352;2022-07-22T11:20:22;7.78;;;7.10;;
18340;SDS011;9296;48.084;16.352;2022-07-22T11:25:36;8.20;;;7.35;;
18340;SDS011;9296;48.084;16.352;2022-07-22T11:28:06;8.77;;;6.85;;
18340;SDS011;9296;48.084;16.352;2022-07-22T11:30:33;7.95;;;7.15;;
18340;SDS011;9296;48.084;16.352;2022-07-22T11:33:01;7.45;;;6.72;;
18340;SDS011;9296;48.084;16.352;2022-07-22T11:35:28;7.38;;;6.50;;
18340;SDS011;9296;48.084;16.352;2022-07-22T11:40:42;7.72;;;6.72;;
18340;SDS011;9296;48.084;16.352;2022-07-22T11:43:10;7.72;;;7.13;;
18340;SDS011;9296;48.084;16.352;2022-07-22T11:48:22;8.18;;;7.38;;
18340;SDS011;9296;48.084;16.352;2022-07-22T11:54:12;8.15;;;7.45;;
18340;SDS011;9296;48.084;16.352;2022-07-22T11:56:39;11.07;;;7.05;;
18340;SDS011;9296;48.084;16.352;2022-07-22T11:59:11;7.85;;;7.15;;
18340;SDS011;9296;48.084;16.352;2022-07-22T12:01:39;8.38;;;6.85;;
18340;SDS011;9296;48.084;16.352;2022-07-22T12:04:07;8.02;;;7.22;;
18340;SDS011;9296;48.084;16.352;2022-07-22T12:06:36;8.15;;;7.45;;
18340;SDS011;9296;48.084;16.352;2022-07-22T12:09:05;8.38;;;7.25;;
18340;SDS011;9296;48.084;16.352;2022-07-22T12:11:34;8.68;;;7.32;;
18340;SDS011;9296;48.084;16.352;2022-07-22T12:14:08;8.32;;;7.25;;
18340;SDS011;9296;48.084;16.352;2022-07-22T12:16:36;8.18;;;7.40;;
18340;SDS011;9296;48.084;16.352;2022-07-22T12:19:04;8.23;;;7.53;;
18340;SDS011;9296;48.084;16.352;2022-07-22T12:21:51;8.27;;;7.47;;
18340;SDS011;9296;48.084;16.352;2022-07-22T12:24:30;7.95;;;7.20;;
18340;SDS011;9296;48.084;16.352;2022-07-22T12:26:58;7.72;;;7.13;;
18340;SDS011;9296;48.084;16.352;2022-07-22T12:29:29;8.10;;;7.40;;
18340;SDS011;9296;48.084;16.352;2022-07-22T12:32:07;8.18;;;7.43;;
18340;SDS011;9296;48.084;16.352;2022-07-22T12:34:36;9.55;;;7.57;;
18340;SDS011;9296;48.084;16.352;2022-07-22T12:37:14;10.65;;;7.72;;
18340;SDS011;9296;48.084;16.352;2022-07-22T12:39:53;9.60;;;7.57;;
18340;SDS011;9296;48.084;16.352;2022-07-22T12:42:21;7.95;;;7.20;;
18340;SDS011;9296;48.084;16.352;2022-07-22T12:44:51;8.40;;;7.55;;
18340;SDS011;9296;48.084;16.352;2022-07-22T12:47:39;10.48;;;7.70;;
18340;SDS011;9296;48.084;16.352;2022-07-22T12:50:17;9.63;;;7.97;;
18340;SDS011;9296;48.084;16.352;2022-07-22T12:52:48;8.63;;;7.63;;
18340;SDS011;9296;48.084;16.352;2022-07-22T12:55:16;8.60;;;7.80;;
18340;SDS011;9296;48.084;16.352;2022-07-22T12:57:44;8.68;;;7.40;;
18340;SDS011;9296;48.084;16.352;2022-07-22T13:00:16;8.32;;;7.53;;
18340;SDS011;9296;48.084;16.352;2022-07-22T13:02:44;8.80;;;7.90;;
18340;SDS011;9296;48.084;16.352;2022-07-22T13:05:11;10.13;;;7.47;;
18340;SDS011;9296;48.084;16.352;2022-07-22T13:07:38;8.38;;;7.68;;
18340;SDS011;9296;48.084;16.352;2022-07-22T13:10:06;8.13;;;7.53;;
18340;SDS011;9296;48.084;16.352;2022-07-22T13:12:33;9.15;;;8.27;;
18340;SDS011;9296;48.084;16.352;2022-07-22T13:15:00;10.15;;;8.05;;
18340;SDS011;9296;48.084;16.352;2022-07-22T13:17:29;8.80;;;7.93;;
18340;SDS011;9296;48.084;16.352;2022-07-22T13:19:55;8.50;;;7.70;;
18340;SDS011;9296;48.084;16.352;2022-07-22T13:22:22;8.10;;;7.30;;
18340;SDS011;9296;48.084;16.352;2022-07-22T13:24:49;8.57;;;7.78;;
18340;SDS011;9296;48.084;16.352;2022-07-22T13:27:16;8.60;;;7.80;;
18340;SDS011;9296;48.084;16.352;2022-07-22T13:29:43;9.75;;;7.55;;
18340;SDS011;9296;48.084;16.352;2022-07-22T13:32:10;8.20;;;7.47;;
18340;SDS011;9296;48.084;16.352;2022-07-22T13:34:39;8.43;;;7.65;;
18340;SDS011;9296;48.084;16.352;2022-07-22T13:37:06;8.93;;;8.02;;
18340;SDS011;9296;48.084;16.352;2022-07-22T13:39:33;9.07;;;7.47;;
18340;SDS011;9296;48.084;16.352;2022-07-22T13:42:00;11.00;;;7.90;;
18340;SDS011;9296;48.084;16.352;2022-07-22T13:44:27;8.48;;;7.57;;
18340;SDS011;9296;48.084;16.352;2022-07-22T13:46:55;8.73;;;7.82;;
18340;SDS011;9296;48.084;16.352;2022-07-22T13:49:22;8.73;;;7.72;;
18340;SDS011;9296;48.084;16.352;2022-07-22T13:58:10;8.82;;;7.93;;
18340;SDS011;9296;48.084;16.352;2022-07-22T14:00:37;8.48;;;7.63;;
18340;SDS011;9296;48.084;16.352;2022-07-22T14:03:06;8.85;;;7.90;;
18340;SDS011;9296;48.084;16.352;2022-07-22T14:05:33;10.35;;;7.90;;
18340;SDS011;9296;48.084;16.352;2022-07-22T14:11:09;8.88;;;7.90;;
18340;SDS011;9296;48.084;16.352;2022-07-22T14:13:36;8.40;;;7.57;;
18340;SDS011;9296;48.084;16.352;2022-07-22T14:16:03;8.55;;;7.72;;
18340;SDS011;9296;48.084;16.352;2022-07-22T14:18:45;8.60;;;7.72;;
18340;SDS011;9296;48.084;16.352;2022-07-22T14:21:12;8.32;;;7.53;;
18340;SDS011;9296;48.084;16.352;2022-07-22T14:27:02;8.25;;;7.55;;
18340;SDS011;9296;48.084;16.352;2022-07-22T14:29:29;8.77;;;7.85;;
18340;SDS011;9296;48.084;16.352;2022-07-22T14:31:56;9.13;;;7.68;;
18340;SDS011;9296;48.084;16.352;2022-07-22T14:34:23;10.65;;;7.65;;
18340;SDS011;9296;48.084;16.352;2022-07-22T14:36:50;8.32;;;7.40;;
18340;SDS011;9296;48.084;16.352;2022-07-22T14:39:17;8.52;;;7.65;;
18340;SDS011;9296;48.084;16.352;2022-07-22T14:41:44;10.18;;;7.70;;
18340;SDS011;9296;48.084;16.352;2022-07-22T14:44:13;8.35;;;7.53;;
18340;SDS011;9296;48.084;16.352;2022-07-22T14:46:40;9.90;;;7.20;;
18340;SDS011;9296;48.084;16.352;2022-07-22T14:49:07;9.75;;;7.50;;
18340;SDS011;9296;48.084;16.352;2022-07-22T14:51:47;8.85;;;7.80;;
18340;SDS011;9296;48.084;16.352;2022-07-22T14:54:14;8.07;;;7.38;;
18340;SDS011;9296;48.084;16.352;2022-07-22T14:56:40;8.48;;;7.65;;
18340;SDS011;9296;48.084;16.352;2022-07-22T14:59:08;8.85;;;7.82;;
18340;SDS011;9296;48.084;16.352;2022-07-22T15:01:36;8.73;;;7.53;;
18340;SDS011;9296;48.084;16.352;2022-07-22T15:04:03;8.57;;;7.07;;
18340;SDS011;9296;48.084;16.352;2022-07-22T15:06:45;12.95;;;7.97;;
18340;SDS011;9296;48.084;16.352;2022-07-22T15:09:12;17.38;;;9.63;;
18340;SDS011;9296;48.084;16.352;2022-07-22T15:11:39;8.43;;;7.63;;
18340;SDS011;9296;48.084;16.352;2022-07-22T15:14:06;9.35;;;7.55;;
18340;SDS011;9296;48.084;16.352;2022-07-22T15:16:33;7.78;;;7.18;;
18340;SDS011;9296;48.084;16.352;2022-07-22T15:19:01;9.13;;;7.03;;
18340;SDS011;9296;48.084;16.352;2022-07-22T15:21:28;8.10;;;7.30;;
18340;SDS011;9296;48.084;16.352;2022-07-22T15:24:15;8.05;;;7.35;;
18340;SDS011;9296;48.084;16.352;2022-07-22T15:26:42;7.93;;;7.15;;
18340;SDS011;9296;48.084;16.352;2022-07-22T15:29:08;8.48;;;7.55;;
18340;SDS011;9296;48.084;16.352;2022-07-22T15:31:35;7.95;;;6.80;;
18340;SDS011;9296;48.084;16.352;2022-07-22T15:34:04;7.82;;;7.10;;
18340;SDS011;9296;48.084;16.352;2022-07-22T15:36:30;8.35;;;7.20;;
18340;SDS011;9296;48.084;16.352;2022-07-22T15:42:01;8.27;;;7.00;;
18340;SDS011;9296;48.084;16.352;2022-07-22T15:44:29;7.97;;;7.18;;
18340;SDS011;9296;48.084;16.352;2022-07-22T15:46:56;7.55;;;6.90;;
18340;SDS011;9296;48.084;16.352;2022-07-22T15:49:24;8.38;;;6.78;;
18340;SDS011;9296;48.084;16.352;2022-07-22T15:55:13;12.77;;;7.88;;
18340;SDS011;9296;48.084;16.352;2022-07-22T15:57:40;7.93;;;7.18;;
18340;SDS011;9296;48.084;16.352;2022-07-22T16:00:24;7.85;;;7.07;;
18340;SDS011;9296;48.084;16.352;2022-07-22T16:02:51;8.63;;;7.38;;
18340;SDS011;9296;48.084;16.352;2022-07-22T16:05:20;10.48;;;7.18;;
18340;SDS011;9296;48.084;16.352;2022-07-22T16:07:47;7.70;;;6.80;;
18340;SDS011;9296;48.084;16.352;2022-07-22T16:10:14;11.20;;;7.55;;
18340;SDS011;9296;48.084;16.352;2022-07-22T16:12:41;8.23;;;7.40;;
18340;SDS011;9296;48.084;16.352;2022-07-22T16:15:08;9.27;;;7.57;;
18340;SDS011;9296;48.084;16.352;2022-07-22T16:17:35;7.82;;;7.10;;
18340;SDS011;9296;48.084;16.352;2022-07-22T16:20:03;10.18;;;7.35;;
18340;SDS011;9296;48.084;16.352;2022-07-22T16:22:34;9.13;;;7.40;;
18340;SDS011;9296;48.084;16.352;2022-07-22T16:25:02;9.02;;;7.25;;
18340;SDS011;9296;48.084;16.352;2022-07-22T16:27:29;7.97;;;6.95;;
18340;SDS011;9296;48.084;16.352;2022-07-22T16:29:56;8.88;;;7.20;;
18340;SDS011;9296;48.084;16.352;2022-07-22T16:32:23;7.72;;;7.00;;
18340;SDS011;9296;48.084;16.352;2022-07-22T16:34:50;11.70;;;7.60;;